createdAt,value
2019-03-09T00:00:23.775Z,1.95
2019-03-09T00:05:32.651Z,1.71
2019-03-09T00:10:41.543Z,2.03
2019-03-09T00:15:50.412Z,2.15
2019-03-09T00:20:59.330Z,2.42
2019-03-09T00:26:08.227Z,1.83
2019-03-09T00:31:17.184Z,1.96
2019-03-09T00:36:28.056Z,2.27
2019-03-09T00:41:34.495Z,1.91
2019-03-09T00:46:43.344Z,1.87
2019-03-09T00:51:52.238Z,2.03
2019-03-09T00:57:01.268Z,2.01
2019-03-09T01:02:10.148Z,2.06
2019-03-09T01:07:19.019Z,2.02
2019-03-09T01:12:27.868Z,1.94
2019-03-09T01:17:36.755Z,2.08
2019-03-09T01:22:45.655Z,2.74
2019-03-09T01:27:54.547Z,2.34
2019-03-09T01:33:03.423Z,1.73
2019-03-09T01:38:12.352Z,1.99
2019-03-09T01:43:21.217Z,1.74
2019-03-09T01:48:30.101Z,1.70
2019-03-09T01:53:39.031Z,1.90
2019-03-09T01:58:47.922Z,1.58
2019-03-09T02:03:56.835Z,1.59
2019-03-09T02:09:05.724Z,1.51
2019-03-09T02:14:14.610Z,1.29
2019-03-09T02:19:23.487Z,1.49
2019-03-09T02:24:32.415Z,1.52
2019-03-09T02:29:41.286Z,1.35
2019-03-09T02:34:50.173Z,1.62
2019-03-09T02:39:59.044Z,1.64
2019-03-09T02:45:07.929Z,1.88
2019-03-09T02:50:16.835Z,1.40
2019-03-09T02:55:25.672Z,1.60
2019-03-09T03:00:34.641Z,1.89
2019-03-09T03:05:43.476Z,1.71
2019-03-09T03:10:52.439Z,1.72
2019-03-09T03:16:01.279Z,2.19
2019-03-09T03:21:10.191Z,1.87
2019-03-09T03:26:19.056Z,1.88
2019-03-09T03:31:27.961Z,2.15
2019-03-09T03:36:36.813Z,2.15
2019-03-09T03:41:45.758Z,2.06
2019-03-09T03:46:54.613Z,2.09
2019-03-09T03:52:03.544Z,2.21
2019-03-09T03:57:12.432Z,2.51
2019-03-09T04:02:21.298Z,2.47
2019-03-09T04:07:30.167Z,2.46
2019-03-09T04:12:39.081Z,2.58
2019-03-09T04:17:47.948Z,2.48
2019-03-09T04:22:56.853Z,2.61
2019-03-09T04:28:05.764Z,2.43
2019-03-09T04:33:14.695Z,2.22
2019-03-09T04:38:23.587Z,2.36
2019-03-09T04:43:32.469Z,2.40
2019-03-09T04:48:41.332Z,2.42
2019-03-09T04:53:50.202Z,2.61
2019-03-09T04:58:59.105Z,2.28
2019-03-09T05:04:07.987Z,2.89
2019-03-09T05:09:16.855Z,2.46
2019-03-09T05:14:25.708Z,2.54
2019-03-09T05:19:34.677Z,3.08
2019-03-09T05:24:43.562Z,3.67
2019-03-09T05:29:52.488Z,3.95
2019-03-09T05:35:01.368Z,3.94
2019-03-09T05:40:10.450Z,4.10
2019-03-09T05:45:19.315Z,3.47
2019-03-09T05:50:28.188Z,3.81
2019-03-09T05:55:37.067Z,3.60
2019-03-09T06:00:45.936Z,3.68
2019-03-09T06:05:54.807Z,3.20
2019-03-09T06:11:03.683Z,3.06
2019-03-09T06:16:12.549Z,3.71
2019-03-09T06:21:21.448Z,3.66
2019-03-09T06:26:30.359Z,3.54
2019-03-09T06:31:39.278Z,3.56
2019-03-09T06:36:48.188Z,3.22
2019-03-09T06:41:57.088Z,4.10
2019-03-09T06:47:05.960Z,3.66
2019-03-09T06:52:14.874Z,3.75
2019-03-09T06:57:23.734Z,3.34
2019-03-09T07:02:32.624Z,3.67
2019-03-09T07:07:41.458Z,3.30
2019-03-09T07:12:50.331Z,3.27
2019-03-09T07:17:59.216Z,3.61
2019-03-09T07:23:08.088Z,4.53
2019-03-09T07:28:16.960Z,4.60
2019-03-09T07:33:25.899Z,4.10
2019-03-09T07:38:34.760Z,4.47
2019-03-09T07:43:43.629Z,4.43
2019-03-09T07:48:52.486Z,4.21
2019-03-09T07:54:01.348Z,4.23
2019-03-09T07:59:10.256Z,4.39
2019-03-09T08:04:19.096Z,4.13
2019-03-09T08:09:27.991Z,4.76
2019-03-09T08:14:36.905Z,4.73
2019-03-09T08:19:45.931Z,5.23
2019-03-09T08:24:54.872Z,4.37
2019-03-09T08:30:03.695Z,5.26
2019-03-09T08:35:12.534Z,4.90
2019-03-09T08:40:21.465Z,4.08
2019-03-09T08:45:30.317Z,4.92
2019-03-09T08:50:39.235Z,4.85
2019-03-09T08:55:48.202Z,4.33
2019-03-09T09:00:57.118Z,4.62
2019-03-09T09:06:06.063Z,4.79
2019-03-09T09:11:14.927Z,4.41
2019-03-09T09:16:23.823Z,4.77
2019-03-09T09:21:32.689Z,4.88
2019-03-09T09:26:41.607Z,4.94
2019-03-09T09:31:50.519Z,4.54
2019-03-09T09:36:59.402Z,4.85
2019-03-09T09:42:08.252Z,4.85
2019-03-09T09:47:17.139Z,4.46
2019-03-09T09:52:26.044Z,4.39
2019-03-09T09:57:34.925Z,4.63
2019-03-09T10:02:43.798Z,4.62
2019-03-09T10:07:52.686Z,4.70
2019-03-09T10:13:01.583Z,4.83
2019-03-09T10:18:10.475Z,4.69
2019-03-09T10:23:19.361Z,4.85
2019-03-09T10:28:28.213Z,4.67
2019-03-09T10:33:37.095Z,4.61
2019-03-09T10:38:45.995Z,4.77
2019-03-09T10:43:54.849Z,4.78
2019-03-09T10:49:03.719Z,4.94
2019-03-09T10:54:12.618Z,4.56
2019-03-09T10:59:21.494Z,5.14
2019-03-09T11:04:30.408Z,4.75
2019-03-09T11:09:39.286Z,5.04
2019-03-09T11:14:48.196Z,5.26
2019-03-09T11:19:57.048Z,5.62
2019-03-09T11:25:05.964Z,4.96
2019-03-09T11:30:14.826Z,5.39
2019-03-09T11:35:23.744Z,5.70
2019-03-09T11:40:32.619Z,5.50
2019-03-09T11:45:41.496Z,5.85
2019-03-09T11:50:50.371Z,6.50
2019-03-09T11:55:59.258Z,7.07
2019-03-09T12:01:08.132Z,6.38
2019-03-09T12:06:17.023Z,6.53
2019-03-09T12:11:25.960Z,6.63
2019-03-09T12:16:34.846Z,6.61
2019-03-09T12:21:43.727Z,6.94
2019-03-09T12:26:52.583Z,6.80
2019-03-09T12:32:01.448Z,6.71
2019-03-09T12:37:10.341Z,6.65
2019-03-09T12:42:19.239Z,7.25
2019-03-09T12:47:28.138Z,7.57
2019-03-09T12:52:37.063Z,6.80
2019-03-09T12:57:45.925Z,7.89
2019-03-09T13:02:54.803Z,7.70
2019-03-09T13:08:03.637Z,7.54
2019-03-09T13:13:12.560Z,7.35
2019-03-09T13:18:21.455Z,7.02
2019-03-09T13:23:30.319Z,7.53
2019-03-09T13:28:39.178Z,7.67
2019-03-09T13:33:48.030Z,7.33
2019-03-09T13:38:56.896Z,8.01
2019-03-09T13:44:05.772Z,8.55
2019-03-09T13:49:14.662Z,8.57
2019-03-09T13:54:23.519Z,8.60
2019-03-09T13:59:32.460Z,8.36
2019-03-09T14:04:41.342Z,8.10
2019-03-09T14:09:50.243Z,7.62
2019-03-09T14:14:59.111Z,6.89
2019-03-09T14:20:07.959Z,6.17
2019-03-09T14:25:17.022Z,5.55
2019-03-09T14:30:25.861Z,5.52
2019-03-09T14:35:34.788Z,4.74
2019-03-09T14:40:43.735Z,4.25
2019-03-09T14:45:52.581Z,4.13
2019-03-09T14:51:01.457Z,3.87
2019-03-09T14:56:10.312Z,3.46
2019-03-09T15:01:19.284Z,3.00
2019-03-09T15:06:28.144Z,3.28
2019-03-09T15:11:37.020Z,3.34
2019-03-09T15:16:45.913Z,3.32
2019-03-09T15:21:54.811Z,2.93
2019-03-09T15:27:03.718Z,2.94
2019-03-09T15:32:12.584Z,3.09
2019-03-09T15:37:21.482Z,3.06
2019-03-09T15:42:30.350Z,3.33
2019-03-09T15:47:39.270Z,3.21
2019-03-09T15:52:48.161Z,3.06
2019-03-09T15:57:57.063Z,3.04
2019-03-09T16:03:06.001Z,3.04
2019-03-09T16:08:14.878Z,3.41
2019-03-09T16:13:24.503Z,3.28
2019-03-09T16:18:32.693Z,3.67
2019-03-09T16:23:40.636Z,3.54
2019-03-09T16:28:49.535Z,4.38
2019-03-09T16:33:58.543Z,3.84
2019-03-09T16:39:07.521Z,3.55
2019-03-09T16:44:16.379Z,3.70
2019-03-09T16:49:25.297Z,3.62
2019-03-09T16:54:34.182Z,4.39
2019-03-09T16:59:44.362Z,4.50
2019-03-09T17:04:51.504Z,3.92
2019-03-09T17:10:00.410Z,4.51
2019-03-09T17:15:09.239Z,4.35
2019-03-09T17:20:18.228Z,4.08
2019-03-09T17:25:27.080Z,4.10
2019-03-09T17:30:35.975Z,4.15
2019-03-09T17:35:44.891Z,3.52
2019-03-09T17:40:53.765Z,3.47
2019-03-09T17:46:02.650Z,3.92
2019-03-09T17:51:11.501Z,3.35
2019-03-09T17:56:20.395Z,3.61
2019-03-09T18:01:29.276Z,3.91
2019-03-09T18:06:38.212Z,3.43
2019-03-09T18:11:47.125Z,2.86
2019-03-09T18:16:56.021Z,2.93
2019-03-09T18:22:04.904Z,3.13
2019-03-09T18:27:13.811Z,3.34
2019-03-09T18:32:22.716Z,2.94
2019-03-09T18:37:31.603Z,3.33
2019-03-09T18:42:40.531Z,2.94
2019-03-09T18:47:49.561Z,2.64
2019-03-09T18:52:58.432Z,3.28
2019-03-09T18:58:07.313Z,3.87
2019-03-09T19:03:16.213Z,3.35
2019-03-09T19:08:25.090Z,3.50
2019-03-09T19:13:33.924Z,4.32
2019-03-09T19:18:42.803Z,3.11
2019-03-09T19:23:51.680Z,3.34
2019-03-09T19:29:00.579Z,3.58
2019-03-09T19:34:09.479Z,3.77
2019-03-09T19:39:18.364Z,3.84
2019-03-09T19:44:27.265Z,3.66
2019-03-09T19:49:36.178Z,3.45
2019-03-09T19:54:45.041Z,3.72
2019-03-09T19:59:53.896Z,4.18
2019-03-09T20:05:02.764Z,4.08
2019-03-09T20:10:11.674Z,3.92
2019-03-09T20:15:20.528Z,4.19
2019-03-09T20:20:29.399Z,3.50
2019-03-09T20:25:38.312Z,3.79
2019-03-09T20:30:47.191Z,3.46
2019-03-09T20:35:56.148Z,3.71
2019-03-09T20:41:05.043Z,3.88
2019-03-09T20:46:13.924Z,3.32
2019-03-09T20:51:22.796Z,3.31
2019-03-09T20:56:31.669Z,3.43
2019-03-09T21:01:40.543Z,3.49
2019-03-09T21:06:49.416Z,3.50
2019-03-09T21:11:58.301Z,3.26
2019-03-09T21:17:07.261Z,3.66
2019-03-09T21:22:16.168Z,3.58
2019-03-09T21:27:25.052Z,3.75
2019-03-09T21:32:34.051Z,3.76
2019-03-09T21:37:42.945Z,3.68
2019-03-09T21:42:51.808Z,3.54
2019-03-09T21:48:00.715Z,3.26
2019-03-09T21:53:09.614Z,3.47
2019-03-09T21:58:18.535Z,3.84
2019-03-09T22:03:27.403Z,3.43
2019-03-09T22:08:36.267Z,3.40
2019-03-09T22:13:45.160Z,3.29
2019-03-09T22:18:54.078Z,3.19
2019-03-09T22:24:02.946Z,3.08
2019-03-09T22:29:11.895Z,3.52
2019-03-09T22:34:20.777Z,3.90
2019-03-09T22:39:29.641Z,3.29
2019-03-09T22:44:38.587Z,3.72
2019-03-09T22:49:47.634Z,4.44
2019-03-09T22:54:56.629Z,4.47
2019-03-09T23:00:05.478Z,6.37
2019-03-09T23:05:14.375Z,4.61
2019-03-09T23:10:23.232Z,3.71
2019-03-09T23:15:32.155Z,4.19
2019-03-09T23:20:41.048Z,4.08
2019-03-09T23:25:49.930Z,4.11
2019-03-09T23:30:58.819Z,3.96
2019-03-09T23:36:07.665Z,3.52
2019-03-09T23:41:16.582Z,4.10
2019-03-09T23:46:25.436Z,4.06
2019-03-09T23:51:34.288Z,4.03
2019-03-09T23:56:43.206Z,3.75
